sensor_id;sensor_type;location;lat;lon;timestamp;P1;durP1;ratioP1;P2;durP2;ratioP2
16804;SDS011;8520;50.102;20.010;2023-07-09T00:01:53;9.52;;;6.88;;
16804;SDS011;8520;50.102;20.010;2023-07-09T00:04:21;7.63;;;7.07;;
16804;SDS011;8520;50.102;20.010;2023-07-09T00:06:50;7.47;;;6.78;;
16804;SDS011;8520;50.102;20.010;2023-07-09T00:09:20;7.47;;;6.97;;
16804;SDS011;8520;50.102;20.010;2023-07-09T00:11:50;7.28;;;6.78;;
16804;SDS011;8520;50.102;20.010;2023-07-09T00:14:18;7.88;;;7.28;;
16804;SDS011;8520;50.102;20.010;2023-07-09T00:16:47;7.00;;;6.43;;
16804;SDS011;8520;50.102;20.010;2023-07-09T00:19:16;7.00;;;6.50;;
16804;SDS011;8520;50.102;20.010;2023-07-09T00:21:48;7.00;;;6.47;;
16804;SDS011;8520;50.102;20.010;2023-07-09T00:24:21;7.38;;;6.88;;
16804;SDS011;8520;50.102;20.010;2023-07-09T00:26:49;6.80;;;6.30;;
16804;SDS011;8520;50.102;20.010;2023-07-09T00:29:19;6.68;;;6.28;;
16804;SDS011;8520;50.102;20.010;2023-07-09T00:31:47;6.57;;;6.03;;
16804;SDS011;8520;50.102;20.010;2023-07-09T00:34:16;6.22;;;5.82;;
16804;SDS011;8520;50.102;20.010;2023-07-09T00:36:48;6.10;;;5.70;;
16804;SDS011;8520;50.102;20.010;2023-07-09T00:39:18;6.30;;;5.85;;
16804;SDS011;8520;50.102;20.010;2023-07-09T00:41:49;6.10;;;5.70;;
16804;SDS011;8520;50.102;20.010;2023-07-09T00:44:21;6.13;;;5.72;;
16804;SDS011;8520;50.102;20.010;2023-07-09T00:49:46;5.75;;;5.18;;
16804;SDS011;8520;50.102;20.010;2023-07-09T00:52:21;6.15;;;5.72;;
16804;SDS011;8520;50.102;20.010;2023-07-09T00:54:54;6.75;;;6.05;;
16804;SDS011;8520;50.102;20.010;2023-07-09T00:57:27;6.72;;;6.32;;
16804;SDS011;8520;50.102;20.010;2023-07-09T00:59:56;6.25;;;5.85;;
16804;SDS011;8520;50.102;20.010;2023-07-09T01:02:36;6.57;;;6.07;;
16804;SDS011;8520;50.102;20.010;2023-07-09T01:05:05;6.88;;;6.38;;
16804;SDS011;8520;50.102;20.010;2023-07-09T01:07:33;6.93;;;6.35;;
16804;SDS011;8520;50.102;20.010;2023-07-09T01:10:01;7.45;;;6.88;;
16804;SDS011;8520;50.102;20.010;2023-07-09T01:12:31;8.10;;;7.32;;
16804;SDS011;8520;50.102;20.010;2023-07-09T01:15:00;7.80;;;7.20;;
16804;SDS011;8520;50.102;20.010;2023-07-09T01:17:29;8.18;;;6.32;;
16804;SDS011;8520;50.102;20.010;2023-07-09T01:19:57;7.25;;;6.57;;
16804;SDS011;8520;50.102;20.010;2023-07-09T01:22:26;7.28;;;6.68;;
16804;SDS011;8520;50.102;20.010;2023-07-09T01:24:58;6.57;;;6.13;;
16804;SDS011;8520;50.102;20.010;2023-07-09T01:27:30;6.25;;;5.85;;
16804;SDS011;8520;50.102;20.010;2023-07-09T01:30:01;6.47;;;5.93;;
16804;SDS011;8520;50.102;20.010;2023-07-09T01:32:32;6.90;;;6.40;;
16804;SDS011;8520;50.102;20.010;2023-07-09T01:35:02;6.97;;;6.38;;
16804;SDS011;8520;50.102;20.010;2023-07-09T01:37:35;6.93;;;6.32;;
16804;SDS011;8520;50.102;20.010;2023-07-09T01:40:05;6.88;;;6.38;;
16804;SDS011;8520;50.102;20.010;2023-07-09T01:42:55;7.53;;;7.03;;
16804;SDS011;8520;50.102;20.010;2023-07-09T01:45:26;7.00;;;6.50;;
16804;SDS011;8520;50.102;20.010;2023-07-09T01:47:55;7.85;;;7.20;;
16804;SDS011;8520;50.102;20.010;2023-07-09T01:50:23;7.57;;;7.07;;
16804;SDS011;8520;50.102;20.010;2023-07-09T01:52:57;7.63;;;7.13;;
16804;SDS011;8520;50.102;20.010;2023-07-09T01:55:26;7.45;;;6.95;;
16804;SDS011;8520;50.102;20.010;2023-07-09T01:57:57;9.00;;;8.40;;
16804;SDS011;8520;50.102;20.010;2023-07-09T02:00:25;7.10;;;6.55;;
16804;SDS011;8520;50.102;20.010;2023-07-09T02:02:53;7.47;;;6.88;;
16804;SDS011;8520;50.102;20.010;2023-07-09T02:05:24;7.60;;;6.15;;
16804;SDS011;8520;50.102;20.010;2023-07-09T02:07:53;7.95;;;7.35;;
16804;SDS011;8520;50.102;20.010;2023-07-09T02:10:23;7.65;;;6.80;;
16804;SDS011;8520;50.102;20.010;2023-07-09T02:12:51;8.00;;;7.20;;
16804;SDS011;8520;50.102;20.010;2023-07-09T02:15:20;7.40;;;6.70;;
16804;SDS011;8520;50.102;20.010;2023-07-09T02:17:49;7.68;;;7.18;;
16804;SDS011;8520;50.102;20.010;2023-07-09T02:20:19;7.05;;;6.57;;
16804;SDS011;8520;50.102;20.010;2023-07-09T02:22:49;8.35;;;7.50;;
16804;SDS011;8520;50.102;20.010;2023-07-09T02:25:18;7.72;;;7.22;;
16804;SDS011;8520;50.102;20.010;2023-07-09T02:27:47;8.57;;;8.02;;
16804;SDS011;8520;50.102;20.010;2023-07-09T02:30:17;9.10;;;8.30;;
16804;SDS011;8520;50.102;20.010;2023-07-09T02:32:45;8.15;;;7.50;;
16804;SDS011;8520;50.102;20.010;2023-07-09T02:35:13;8.35;;;7.75;;
16804;SDS011;8520;50.102;20.010;2023-07-09T02:37:41;8.55;;;7.93;;
16804;SDS011;8520;50.102;20.010;2023-07-09T02:40:11;13.43;;;7.57;;
16804;SDS011;8520;50.102;20.010;2023-07-09T02:42:40;8.10;;;7.40;;
16804;SDS011;8520;50.102;20.010;2023-07-09T02:45:10;9.30;;;8.60;;
16804;SDS011;8520;50.102;20.010;2023-07-09T02:47:38;9.10;;;8.40;;
16804;SDS011;8520;50.102;20.010;2023-07-09T02:50:07;9.02;;;8.30;;
16804;SDS011;8520;50.102;20.010;2023-07-09T02:52:36;8.68;;;7.97;;
16804;SDS011;8520;50.102;20.010;2023-07-09T02:55:04;8.32;;;7.82;;
16804;SDS011;8520;50.102;20.010;2023-07-09T02:57:33;8.00;;;7.50;;
16804;SDS011;8520;50.102;20.010;2023-07-09T03:00:01;7.32;;;6.82;;
16804;SDS011;8520;50.102;20.010;2023-07-09T03:02:33;7.90;;;7.30;;
16804;SDS011;8520;50.102;20.010;2023-07-09T03:05:02;7.53;;;7.00;;
16804;SDS011;8520;50.102;20.010;2023-07-09T03:07:31;7.18;;;6.68;;
16804;SDS011;8520;50.102;20.010;2023-07-09T03:09:59;7.63;;;7.03;;
16804;SDS011;8520;50.102;20.010;2023-07-09T03:12:27;7.28;;;6.68;;
16804;SDS011;8520;50.102;20.010;2023-07-09T03:14:55;7.38;;;6.75;;
16804;SDS011;8520;50.102;20.010;2023-07-09T03:17:23;7.28;;;6.68;;
16804;SDS011;8520;50.102;20.010;2023-07-09T03:19:53;6.75;;;6.25;;
16804;SDS011;8520;50.102;20.010;2023-07-09T03:22:22;7.65;;;6.95;;
16804;SDS011;8520;50.102;20.010;2023-07-09T03:24:50;8.82;;;8.23;;
16804;SDS011;8520;50.102;20.010;2023-07-09T03:27:18;8.10;;;7.55;;
16804;SDS011;8520;50.102;20.010;2023-07-09T03:29:46;8.02;;;7.53;;
16804;SDS011;8520;50.102;20.010;2023-07-09T03:32:14;9.45;;;8.60;;
16804;SDS011;8520;50.102;20.010;2023-07-09T03:34:43;8.30;;;7.45;;
16804;SDS011;8520;50.102;20.010;2023-07-09T03:37:12;7.88;;;7.38;;
16804;SDS011;8520;50.102;20.010;2023-07-09T03:39:41;7.57;;;7.07;;
16804;SDS011;8520;50.102;20.010;2023-07-09T03:42:09;8.23;;;7.68;;
16804;SDS011;8520;50.102;20.010;2023-07-09T03:44:38;7.70;;;7.13;;
16804;SDS011;8520;50.102;20.010;2023-07-09T03:47:07;8.20;;;7.60;;
16804;SDS011;8520;50.102;20.010;2023-07-09T03:49:35;7.50;;;7.00;;
16804;SDS011;8520;50.102;20.010;2023-07-09T03:52:03;7.53;;;7.03;;
16804;SDS011;8520;50.102;20.010;2023-07-09T03:54:33;8.50;;;7.80;;
16804;SDS011;8520;50.102;20.010;2023-07-09T03:57:02;8.05;;;7.45;;
16804;SDS011;8520;50.102;20.010;2023-07-09T03:59:30;8.25;;;7.63;;
16804;SDS011;8520;50.102;20.010;2023-07-09T04:01:58;8.63;;;7.97;;
16804;SDS011;8520;50.102;20.010;2023-07-09T04:04:28;8.23;;;7.63;;
16804;SDS011;8520;50.102;20.010;2023-07-09T04:06:56;8.98;;;8.18;;
16804;SDS011;8520;50.102;20.010;2023-07-09T04:09:24;8.85;;;8.20;;
16804;SDS011;8520;50.102;20.010;2023-07-09T04:11:54;8.70;;;8.10;;
16804;SDS011;8520;50.102;20.010;2023-07-09T04:14:22;10.05;;;9.27;;
16804;SDS011;8520;50.102;20.010;2023-07-09T04:16:50;8.80;;;8.10;;
16804;SDS011;8520;50.102;20.010;2023-07-09T04:19:18;9.40;;;8.70;;
16804;SDS011;8520;50.102;20.010;2023-07-09T04:21:46;9.82;;;8.93;;
16804;SDS011;8520;50.102;20.010;2023-07-09T04:24:14;9.43;;;8.82;;
16804;SDS011;8520;50.102;20.010;2023-07-09T04:26:45;9.20;;;8.48;;
16804;SDS011;8520;50.102;20.010;2023-07-09T04:29:14;9.85;;;9.15;;
16804;SDS011;8520;50.102;20.010;2023-07-09T04:31:42;10.65;;;9.82;;
16804;SDS011;8520;50.102;20.010;2023-07-09T04:34:10;10.65;;;9.95;;
16804;SDS011;8520;50.102;20.010;2023-07-09T04:36:38;10.82;;;9.93;;
16804;SDS011;8520;50.102;20.010;2023-07-09T04:39:07;10.07;;;9.48;;
16804;SDS011;8520;50.102;20.010;2023-07-09T04:41:35;11.13;;;10.07;;
16804;SDS011;8520;50.102;20.010;2023-07-09T04:44:03;9.48;;;8.90;;
16804;SDS011;8520;50.102;20.010;2023-07-09T04:46:33;10.00;;;9.38;;
16804;SDS011;8520;50.102;20.010;2023-07-09T04:49:02;10.13;;;9.32;;
16804;SDS011;8520;50.102;20.010;2023-07-09T04:51:31;9.77;;;9.18;;
16804;SDS011;8520;50.102;20.010;2023-07-09T04:53:59;11.65;;;10.85;;
16804;SDS011;8520;50.102;20.010;2023-07-09T04:56:29;9.80;;;9.13;;
16804;SDS011;8520;50.102;20.010;2023-07-09T04:58:57;11.10;;;10.20;;
16804;SDS011;8520;50.102;20.010;2023-07-09T05:01:25;11.02;;;10.10;;
16804;SDS011;8520;50.102;20.010;2023-07-09T05:03:55;10.77;;;10.07;;
16804;SDS011;8520;50.102;20.010;2023-07-09T05:06:23;10.82;;;10.05;;
16804;SDS011;8520;50.102;20.010;2023-07-09T05:08:51;10.88;;;10.07;;
16804;SDS011;8520;50.102;20.010;2023-07-09T05:11:20;11.10;;;10.30;;
16804;SDS011;8520;50.102;20.010;2023-07-09T05:13:48;11.13;;;10.32;;
16804;SDS011;8520;50.102;20.010;2023-07-09T05:16:19;10.80;;;10.10;;
16804;SDS011;8520;50.102;20.010;2023-07-09T05:18:47;10.77;;;9.95;;
16804;SDS011;8520;50.102;20.010;2023-07-09T05:21:17;10.80;;;9.93;;
16804;SDS011;8520;50.102;20.010;2023-07-09T05:23:45;10.15;;;9.45;;
16804;SDS011;8520;50.102;20.010;2023-07-09T05:26:13;10.05;;;9.45;;
16804;SDS011;8520;50.102;20.010;2023-07-09T05:28:41;10.50;;;9.75;;
16804;SDS011;8520;50.102;20.010;2023-07-09T05:31:10;11.35;;;10.35;;
16804;SDS011;8520;50.102;20.010;2023-07-09T05:33:39;10.35;;;9.43;;
16804;SDS011;8520;50.102;20.010;2023-07-09T05:36:07;10.70;;;10.00;;
16804;SDS011;8520;50.102;20.010;2023-07-09T05:38:41;10.68;;;9.63;;
16804;SDS011;8520;50.102;20.010;2023-07-09T05:41:10;10.40;;;9.52;;
16804;SDS011;8520;50.102;20.010;2023-07-09T05:43:38;9.75;;;9.05;;
16804;SDS011;8520;50.102;20.010;2023-07-09T05:46:06;9.90;;;9.30;;
16804;SDS011;8520;50.102;20.010;2023-07-09T05:48:34;10.02;;;9.23;;
16804;SDS011;8520;50.102;20.010;2023-07-09T05:51:02;10.48;;;9.77;;
16804;SDS011;8520;50.102;20.010;2023-07-09T05:53:31;10.75;;;10.05;;
16804;SDS011;8520;50.102;20.010;2023-07-09T05:56:01;9.65;;;9.02;;
16804;SDS011;8520;50.102;20.010;2023-07-09T05:58:30;9.57;;;8.95;;
16804;SDS011;8520;50.102;20.010;2023-07-09T06:00:58;9.65;;;8.95;;
16804;SDS011;8520;50.102;20.010;2023-07-09T06:03:26;10.00;;;9.27;;
16804;SDS011;8520;50.102;20.010;2023-07-09T06:05:57;10.55;;;9.85;;
16804;SDS011;8520;50.102;20.010;2023-07-09T06:08:27;10.13;;;9.32;;
16804;SDS011;8520;50.102;20.010;2023-07-09T06:10:56;9.95;;;9.23;;
16804;SDS011;8520;50.102;20.010;2023-07-09T06:13:28;9.63;;;8.73;;
16804;SDS011;8520;50.102;20.010;2023-07-09T06:15:58;8.75;;;8.10;;
16804;SDS011;8520;50.102;20.010;2023-07-09T06:18:28;9.15;;;8.50;;
16804;SDS011;8520;50.102;20.010;2023-07-09T06:20:57;8.05;;;7.45;;
16804;SDS011;8520;50.102;20.010;2023-07-09T06:23:27;8.25;;;7.75;;
16804;SDS011;8520;50.102;20.010;2023-07-09T06:25:56;7.22;;;6.72;;
16804;SDS011;8520;50.102;20.010;2023-07-09T06:28:25;8.85;;;8.18;;
16804;SDS011;8520;50.102;20.010;2023-07-09T06:30:57;8.30;;;7.57;;
16804;SDS011;8520;50.102;20.010;2023-07-09T06:33:26;7.93;;;7.28;;
16804;SDS011;8520;50.102;20.010;2023-07-09T06:35:55;7.75;;;6.97;;
16804;SDS011;8520;50.102;20.010;2023-07-09T06:38:25;7.22;;;6.50;;
16804;SDS011;8520;50.102;20.010;2023-07-09T06:40:54;7.72;;;7.20;;
16804;SDS011;8520;50.102;20.010;2023-07-09T06:43:22;7.95;;;7.22;;
16804;SDS011;8520;50.102;20.010;2023-07-09T06:45:51;7.82;;;7.32;;
16804;SDS011;8520;50.102;20.010;2023-07-09T06:48:21;9.05;;;7.97;;
16804;SDS011;8520;50.102;20.010;2023-07-09T06:50:51;7.57;;;7.07;;
16804;SDS011;8520;50.102;20.010;2023-07-09T06:53:20;6.90;;;6.38;;
16804;SDS011;8520;50.102;20.010;2023-07-09T06:55:48;7.93;;;7.03;;
16804;SDS011;8520;50.102;20.010;2023-07-09T06:58:17;7.50;;;6.90;;
16804;SDS011;8520;50.102;20.010;2023-07-09T07:00:47;7.88;;;7.28;;
16804;SDS011;8520;50.102;20.010;2023-07-09T07:03:16;7.25;;;6.70;;
16804;SDS011;8520;50.102;20.010;2023-07-09T07:05:46;7.45;;;6.95;;
16804;SDS011;8520;50.102;20.010;2023-07-09T07:08:16;7.35;;;6.85;;
16804;SDS011;8520;50.102;20.010;2023-07-09T07:10:47;7.60;;;7.00;;
16804;SDS011;8520;50.102;20.010;2023-07-09T07:13:16;7.50;;;6.90;;
16804;SDS011;8520;50.102;20.010;2023-07-09T07:15:47;7.32;;;6.75;;
16804;SDS011;8520;50.102;20.010;2023-07-09T07:18:16;7.28;;;6.78;;
16804;SDS011;8520;50.102;20.010;2023-07-09T07:20:44;7.50;;;7.00;;
16804;SDS011;8520;50.102;20.010;2023-07-09T07:23:13;7.38;;;6.82;;
16804;SDS011;8520;50.102;20.010;2023-07-09T07:25:42;7.75;;;7.03;;
16804;SDS011;8520;50.102;20.010;2023-07-09T07:28:10;7.75;;;7.15;;
16804;SDS011;8520;50.102;20.010;2023-07-09T07:30:38;7.10;;;6.60;;
16804;SDS011;8520;50.102;20.010;2023-07-09T07:33:06;7.40;;;6.90;;
16804;SDS011;8520;50.102;20.010;2023-07-09T07:35:34;7.63;;;7.15;;
16804;SDS011;8520;50.102;20.010;2023-07-09T07:38:19;7.68;;;7.10;;
16804;SDS011;8520;50.102;20.010;2023-07-09T07:40:47;7.63;;;7.00;;
16804;SDS011;8520;50.102;20.010;2023-07-09T07:43:15;7.75;;;7.18;;
16804;SDS011;8520;50.102;20.010;2023-07-09T07:45:43;8.32;;;7.72;;
16804;SDS011;8520;50.102;20.010;2023-07-09T07:48:12;7.25;;;6.75;;
16804;SDS011;8520;50.102;20.010;2023-07-09T07:50:40;7.93;;;7.22;;
16804;SDS011;8520;50.102;20.010;2023-07-09T07:53:10;6.80;;;6.40;;
16804;SDS011;8520;50.102;20.010;2023-07-09T07:55:39;7.80;;;7.20;;
16804;SDS011;8520;50.102;20.010;2023-07-09T07:58:08;7.72;;;7.00;;
16804;SDS011;8520;50.102;20.010;2023-07-09T08:00:37;7.53;;;6.93;;
16804;SDS011;8520;50.102;20.010;2023-07-09T08:03:06;6.80;;;6.20;;
16804;SDS011;8520;50.102;20.010;2023-07-09T08:05:35;6.88;;;6.38;;
16804;SDS011;8520;50.102;20.010;2023-07-09T08:08:03;7.35;;;6.82;;
16804;SDS011;8520;50.102;20.010;2023-07-09T08:10:31;6.82;;;6.32;;
16804;SDS011;8520;50.102;20.010;2023-07-09T08:13:01;6.57;;;6.07;;
16804;SDS011;8520;50.102;20.010;2023-07-09T08:15:29;7.38;;;6.88;;
16804;SDS011;8520;50.102;20.010;2023-07-09T08:17:57;7.03;;;6.43;;
16804;SDS011;8520;50.102;20.010;2023-07-09T08:20:25;6.63;;;6.20;;
16804;SDS011;8520;50.102;20.010;2023-07-09T08:22:54;6.97;;;6.25;;
16804;SDS011;8520;50.102;20.010;2023-07-09T08:25:22;8.27;;;7.57;;
16804;SDS011;8520;50.102;20.010;2023-07-09T08:27:50;7.00;;;6.32;;
16804;SDS011;8520;50.102;20.010;2023-07-09T08:30:20;6.10;;;5.63;;
16804;SDS011;8520;50.102;20.010;2023-07-09T08:32:48;6.80;;;6.30;;
16804;SDS011;8520;50.102;20.010;2023-07-09T08:35:16;6.75;;;6.35;;
16804;SDS011;8520;50.102;20.010;2023-07-09T08:37:47;7.00;;;6.50;;
16804;SDS011;8520;50.102;20.010;2023-07-09T08:40:16;6.35;;;5.95;;
16804;SDS011;8520;50.102;20.010;2023-07-09T08:42:45;6.03;;;5.63;;
16804;SDS011;8520;50.102;20.010;2023-07-09T08:45:31;7.00;;;6.50;;
16804;SDS011;8520;50.102;20.010;2023-07-09T08:48:09;5.97;;;5.57;;
16804;SDS011;8520;50.102;20.010;2023-07-09T08:50:43;6.38;;;6.00;;
16804;SDS011;8520;50.102;20.010;2023-07-09T08:53:17;6.53;;;6.05;;
16804;SDS011;8520;50.102;20.010;2023-07-09T08:55:48;5.85;;;5.43;;
16804;SDS011;8520;50.102;20.010;2023-07-09T08:58:21;5.72;;;5.35;;
16804;SDS011;8520;50.102;20.010;2023-07-09T09:00:55;5.60;;;5.22;;
16804;SDS011;8520;50.102;20.010;2023-07-09T09:03:27;5.97;;;5.57;;
16804;SDS011;8520;50.102;20.010;2023-07-09T09:06:02;6.03;;;5.53;;
16804;SDS011;8520;50.102;20.010;2023-07-09T09:08:33;5.68;;;5.38;;
16804;SDS011;8520;50.102;20.010;2023-07-09T09:11:10;5.88;;;5.00;;
16804;SDS011;8520;50.102;20.010;2023-07-09T09:13:43;5.55;;;5.22;;
16804;SDS011;8520;50.102;20.010;2023-07-09T09:16:17;5.68;;;5.38;;
16804;SDS011;8520;50.102;20.010;2023-07-09T09:18:53;5.45;;;5.00;;
16804;SDS011;8520;50.102;20.010;2023-07-09T09:21:26;5.43;;;5.03;;
16804;SDS011;8520;50.102;20.010;2023-07-09T09:23:58;5.30;;;4.90;;
16804;SDS011;8520;50.102;20.010;2023-07-09T09:26:41;5.10;;;4.70;;
16804;SDS011;8520;50.102;20.010;2023-07-09T09:29:11;5.72;;;5.35;;
16804;SDS011;8520;50.102;20.010;2023-07-09T09:31:45;5.10;;;4.80;;
16804;SDS011;8520;50.102;20.010;2023-07-09T09:34:18;5.40;;;5.10;;
16804;SDS011;8520;50.102;20.010;2023-07-09T09:36:47;5.78;;;5.38;;
16804;SDS011;8520;50.102;20.010;2023-07-09T09:39:16;6.05;;;5.22;;
16804;SDS011;8520;50.102;20.010;2023-07-09T09:41:44;5.03;;;4.72;;
16804;SDS011;8520;50.102;20.010;2023-07-09T09:44:19;6.65;;;5.13;;
16804;SDS011;8520;50.102;20.010;2023-07-09T09:46:55;5.38;;;4.90;;
16804;SDS011;8520;50.102;20.010;2023-07-09T09:49:26;5.70;;;5.20;;
16804;SDS011;8520;50.102;20.010;2023-07-09T09:51:55;4.85;;;4.55;;
16804;SDS011;8520;50.102;20.010;2023-07-09T09:54:30;4.88;;;4.65;;
16804;SDS011;8520;50.102;20.010;2023-07-09T09:56:59;5.28;;;4.80;;
16804;SDS011;8520;50.102;20.010;2023-07-09T09:59:29;5.60;;;5.10;;
16804;SDS011;8520;50.102;20.010;2023-07-09T10:02:02;5.07;;;4.68;;
16804;SDS011;8520;50.102;20.010;2023-07-09T10:04:41;5.35;;;4.95;;
16804;SDS011;8520;50.102;20.010;2023-07-09T10:07:13;5.00;;;4.70;;
16804;SDS011;8520;50.102;20.010;2023-07-09T10:09:50;5.30;;;4.90;;
16804;SDS011;8520;50.102;20.010;2023-07-09T10:12:34;5.60;;;5.20;;
16804;SDS011;8520;50.102;20.010;2023-07-09T10:15:14;5.57;;;5.18;;
16804;SDS011;8520;50.102;20.010;2023-07-09T10:17:57;5.20;;;4.80;;
16804;SDS011;8520;50.102;20.010;2023-07-09T10:20:32;5.78;;;5.32;;
16804;SDS011;8520;50.102;20.010;2023-07-09T10:23:10;5.70;;;5.30;;
16804;SDS011;8520;50.102;20.010;2023-07-09T10:25:47;5.40;;;5.00;;
16804;SDS011;8520;50.102;20.010;2023-07-09T10:28:28;5.15;;;4.72;;
16804;SDS011;8520;50.102;20.010;2023-07-09T10:31:20;5.80;;;5.50;;
16804;SDS011;8520;50.102;20.010;2023-07-09T10:34:02;5.60;;;5.20;;
16804;SDS011;8520;50.102;20.010;2023-07-09T10:36:46;6.90;;;5.97;;
16804;SDS011;8520;50.102;20.010;2023-07-09T10:39:28;6.07;;;5.65;;
16804;SDS011;8520;50.102;20.010;2023-07-09T10:42:01;5.75;;;5.30;;
16804;SDS011;8520;50.102;20.010;2023-07-09T10:44:31;5.82;;;5.32;;
16804;SDS011;8520;50.102;20.010;2023-07-09T10:47:04;5.85;;;5.45;;
16804;SDS011;8520;50.102;20.010;2023-07-09T10:49:37;5.38;;;5.07;;
16804;SDS011;8520;50.102;20.010;2023-07-09T10:52:10;6.72;;;6.13;;
16804;SDS011;8520;50.102;20.010;2023-07-09T10:54:51;5.38;;;5.07;;
16804;SDS011;8520;50.102;20.010;2023-07-09T10:57:25;5.10;;;4.70;;
16804;SDS011;8520;50.102;20.010;2023-07-09T10:59:57;5.93;;;5.15;;
16804;SDS011;8520;50.102;20.010;2023-07-09T11:02:27;5.80;;;5.45;;
16804;SDS011;8520;50.102;20.010;2023-07-09T11:04:59;5.65;;;5.13;;
16804;SDS011;8520;50.102;20.010;2023-07-09T11:07:30;6.10;;;5.50;;
16804;SDS011;8520;50.102;20.010;2023-07-09T11:10:01;5.78;;;5.40;;
16804;SDS011;8520;50.102;20.010;2023-07-09T11:12:35;7.07;;;6.57;;
16804;SDS011;8520;50.102;20.010;2023-07-09T11:15:08;6.10;;;5.60;;
16804;SDS011;8520;50.102;20.010;2023-07-09T11:17:42;6.00;;;5.60;;
16804;SDS011;8520;50.102;20.010;2023-07-09T11:20:18;6.47;;;5.30;;
16804;SDS011;8520;50.102;20.010;2023-07-09T11:22:53;5.80;;;5.30;;
16804;SDS011;8520;50.102;20.010;2023-07-09T11:25:29;6.40;;;5.90;;
16804;SDS011;8520;50.102;20.010;2023-07-09T11:28:03;5.25;;;4.95;;
16804;SDS011;8520;50.102;20.010;2023-07-09T11:30:33;5.25;;;4.95;;
16804;SDS011;8520;50.102;20.010;2023-07-09T11:33:14;5.97;;;5.47;;
16804;SDS011;8520;50.102;20.010;2023-07-09T11:35:53;6.88;;;5.80;;
16804;SDS011;8520;50.102;20.010;2023-07-09T11:38:38;6.45;;;6.05;;
16804;SDS011;8520;50.102;20.010;2023-07-09T11:41:22;6.57;;;6.18;;
16804;SDS011;8520;50.102;20.010;2023-07-09T11:44:02;6.22;;;5.82;;
16804;SDS011;8520;50.102;20.010;2023-07-09T11:46:33;5.90;;;5.57;;
16804;SDS011;8520;50.102;20.010;2023-07-09T11:49:04;6.60;;;6.10;;
16804;SDS011;8520;50.102;20.010;2023-07-09T11:51:37;7.13;;;6.72;;
16804;SDS011;8520;50.102;20.010;2023-07-09T11:54:09;6.57;;;6.18;;
16804;SDS011;8520;50.102;20.010;2023-07-09T11:56:40;7.40;;;6.20;;
16804;SDS011;8520;50.102;20.010;2023-07-09T11:59:08;6.25;;;5.85;;
16804;SDS011;8520;50.102;20.010;2023-07-09T12:01:40;6.10;;;5.70;;
16804;SDS011;8520;50.102;20.010;2023-07-09T12:04:12;5.43;;;5.03;;
16804;SDS011;8520;50.102;20.010;2023-07-09T12:06:43;6.25;;;5.90;;
16804;SDS011;8520;50.102;20.010;2023-07-09T12:09:13;5.72;;;5.35;;
16804;SDS011;8520;50.102;20.010;2023-07-09T12:11:44;5.35;;;4.95;;
16804;SDS011;8520;50.102;20.010;2023-07-09T12:14:13;6.28;;;5.78;;
16804;SDS011;8520;50.102;20.010;2023-07-09T12:16:43;5.38;;;5.07;;
16804;SDS011;8520;50.102;20.010;2023-07-09T12:19:14;6.07;;;5.53;;
16804;SDS011;8520;50.102;20.010;2023-07-09T12:21:46;5.82;;;5.50;;
16804;SDS011;8520;50.102;20.010;2023-07-09T12:24:18;5.57;;;5.07;;
16804;SDS011;8520;50.102;20.010;2023-07-09T12:26:49;6.38;;;5.88;;
16804;SDS011;8520;50.102;20.010;2023-07-09T12:29:19;6.38;;;5.97;;
16804;SDS011;8520;50.102;20.010;2023-07-09T12:31:47;6.15;;;5.78;;
16804;SDS011;8520;50.102;20.010;2023-07-09T12:34:15;6.10;;;5.57;;
16804;SDS011;8520;50.102;20.010;2023-07-09T12:36:46;6.65;;;6.07;;
16804;SDS011;8520;50.102;20.010;2023-07-09T12:39:18;6.45;;;5.97;;
16804;SDS011;8520;50.102;20.010;2023-07-09T12:41:50;6.30;;;5.68;;
16804;SDS011;8520;50.102;20.010;2023-07-09T12:44:23;6.55;;;6.05;;
16804;SDS011;8520;50.102;20.010;2023-07-09T12:46:52;6.53;;;6.13;;
16804;SDS011;8520;50.102;20.010;2023-07-09T12:49:22;6.38;;;5.88;;
16804;SDS011;8520;50.102;20.010;2023-07-09T12:51:54;6.15;;;5.75;;
16804;SDS011;8520;50.102;20.010;2023-07-09T12:54:23;6.63;;;6.22;;
16804;SDS011;8520;50.102;20.010;2023-07-09T12:56:52;6.18;;;5.78;;
16804;SDS011;8520;50.102;20.010;2023-07-09T12:59:22;6.15;;;5.75;;
16804;SDS011;8520;50.102;20.010;2023-07-09T13:01:54;6.53;;;6.03;;
16804;SDS011;8520;50.102;20.010;2023-07-09T13:04:27;6.30;;;5.90;;
16804;SDS011;8520;50.102;20.010;2023-07-09T13:06:58;6.07;;;5.68;;
16804;SDS011;8520;50.102;20.010;2023-07-09T13:09:27;6.00;;;5.70;;
16804;SDS011;8520;50.102;20.010;2023-07-09T13:11:55;5.85;;;5.55;;
16804;SDS011;8520;50.102;20.010;2023-07-09T13:14:25;6.13;;;5.72;;
16804;SDS011;8520;50.102;20.010;2023-07-09T13:17:02;7.15;;;6.65;;
16804;SDS011;8520;50.102;20.010;2023-07-09T13:19:32;5.97;;;5.45;;
16804;SDS011;8520;50.102;20.010;2023-07-09T13:22:03;6.88;;;6.30;;
16804;SDS011;8520;50.102;20.010;2023-07-09T13:24:33;5.82;;;5.53;;
16804;SDS011;8520;50.102;20.010;2023-07-09T13:27:01;6.22;;;5.82;;
16804;SDS011;8520;50.102;20.010;2023-07-09T13:29:31;6.63;;;6.22;;
16804;SDS011;8520;50.102;20.010;2023-07-09T13:31:59;6.95;;;6.45;;
16804;SDS011;8520;50.102;20.010;2023-07-09T13:34:28;6.38;;;6.07;;
16804;SDS011;8520;50.102;20.010;2023-07-09T13:37:00;6.32;;;5.93;;
16804;SDS011;8520;50.102;20.010;2023-07-09T13:39:29;6.47;;;6.07;;
16804;SDS011;8520;50.102;20.010;2023-07-09T13:41:57;5.95;;;5.57;;
16804;SDS011;8520;50.102;20.010;2023-07-09T13:44:26;6.05;;;5.57;;
16804;SDS011;8520;50.102;20.010;2023-07-09T13:46:57;5.72;;;5.30;;
16804;SDS011;8520;50.102;20.010;2023-07-09T13:49:26;5.88;;;5.47;;
16804;SDS011;8520;50.102;20.010;2023-07-09T13:51:56;6.05;;;5.55;;
16804;SDS011;8520;50.102;20.010;2023-07-09T13:54:28;6.03;;;5.72;;
16804;SDS011;8520;50.102;20.010;2023-07-09T13:57:03;5.55;;;5.25;;
16804;SDS011;8520;50.102;20.010;2023-07-09T13:59:32;5.90;;;5.50;;
16804;SDS011;8520;50.102;20.010;2023-07-09T14:02:01;6.63;;;6.22;;
16804;SDS011;8520;50.102;20.010;2023-07-09T14:04:32;5.82;;;5.50;;
16804;SDS011;8520;50.102;20.010;2023-07-09T14:07:00;6.88;;;6.47;;
16804;SDS011;8520;50.102;20.010;2023-07-09T14:09:30;6.00;;;5.50;;
16804;SDS011;8520;50.102;20.010;2023-07-09T14:11:58;6.38;;;5.80;;
16804;SDS011;8520;50.102;20.010;2023-07-09T14:14:27;6.45;;;6.13;;
16804;SDS011;8520;50.102;20.010;2023-07-09T14:17:00;6.28;;;5.75;;
16804;SDS011;8520;50.102;20.010;2023-07-09T14:19:28;7.00;;;6.60;;
16804;SDS011;8520;50.102;20.010;2023-07-09T14:21:56;6.15;;;5.85;;
16804;SDS011;8520;50.102;20.010;2023-07-09T14:24:25;5.93;;;5.63;;
16804;SDS011;8520;50.102;20.010;2023-07-09T14:26:57;5.82;;;5.45;;
16804;SDS011;8520;50.102;20.010;2023-07-09T14:29:25;6.18;;;5.68;;
16804;SDS011;8520;50.102;20.010;2023-07-09T14:31:53;7.32;;;5.63;;
16804;SDS011;8520;50.102;20.010;2023-07-09T14:34:23;6.43;;;5.97;;
16804;SDS011;8520;50.102;20.010;2023-07-09T14:36:55;5.88;;;5.47;;
16804;SDS011;8520;50.102;20.010;2023-07-09T14:39:25;5.45;;;5.15;;
16804;SDS011;8520;50.102;20.010;2023-07-09T14:41:55;5.70;;;5.30;;
16804;SDS011;8520;50.102;20.010;2023-07-09T14:44:24;5.78;;;5.40;;
16804;SDS011;8520;50.102;20.010;2023-07-09T14:46:55;5.13;;;4.82;;
16804;SDS011;8520;50.102;20.010;2023-07-09T14:49:25;5.50;;;5.20;;
16804;SDS011;8520;50.102;20.010;2023-07-09T14:51:54;5.60;;;5.18;;
16804;SDS011;8520;50.102;20.010;2023-07-09T14:54:24;5.82;;;5.43;;
16804;SDS011;8520;50.102;20.010;2023-07-09T14:56:57;6.05;;;5.53;;
16804;SDS011;8520;50.102;20.010;2023-07-09T14:59:26;6.45;;;6.05;;
16804;SDS011;8520;50.102;20.010;2023-07-09T15:01:54;5.40;;;5.10;;
16804;SDS011;8520;50.102;20.010;2023-07-09T15:04:25;7.25;;;5.25;;
16804;SDS011;8520;50.102;20.010;2023-07-09T15:06:57;5.78;;;5.38;;
16804;SDS011;8520;50.102;20.010;2023-07-09T15:09:26;5.68;;;5.28;;